createdAt,value
2019-01-16T00:01:12.814Z,6.30
2019-01-16T00:03:54.563Z,4.90
2019-01-16T00:06:36.721Z,3.90
2019-01-16T00:09:24.428Z,3.47
2019-01-16T00:11:56.928Z,5.10
2019-01-16T00:14:26.692Z,3.93
2019-01-16T00:17:01.907Z,4.43
2019-01-16T00:19:37.738Z,5.67
2019-01-16T00:22:16.603Z,3.83
2019-01-16T00:24:52.469Z,3.50
2019-01-16T00:27:25.047Z,4.70
2019-01-16T00:30:11.553Z,4.60
2019-01-16T00:32:41.319Z,3.93
2019-01-16T00:35:11.213Z,4.33
2019-01-16T00:37:55.717Z,4.63
2019-01-16T00:40:31.345Z,3.80
2019-01-16T00:43:19.445Z,4.50
2019-01-16T00:46:05.640Z,3.93
2019-01-16T00:48:35.461Z,4.57
2019-01-16T00:51:23.477Z,3.10
2019-01-16T00:54:08.332Z,3.17
2019-01-16T00:56:43.891Z,3.07
2019-01-16T00:59:22.748Z,2.03
2019-01-16T01:01:55.652Z,3.80
2019-01-16T01:04:25.452Z,3.37
2019-01-16T01:07:12.648Z,3.23
2019-01-16T01:10:01.861Z,2.10
2019-01-16T01:12:34.661Z,3.07
2019-01-16T01:15:21.577Z,3.40
2019-01-16T01:17:54.624Z,2.27
2019-01-16T01:20:40.842Z,2.90
2019-01-16T01:23:28.752Z,2.23
2019-01-16T01:26:01.429Z,3.70
2019-01-16T01:28:31.304Z,3.53
2019-01-16T01:31:01.048Z,2.50
2019-01-16T01:33:39.353Z,3.03
2019-01-16T01:36:18.077Z,3.73
2019-01-16T01:39:01.269Z,3.20
2019-01-16T01:41:31.025Z,3.10
2019-01-16T01:44:12.761Z,3.20
2019-01-16T01:46:59.102Z,3.07
2019-01-16T01:49:34.970Z,3.67
2019-01-16T01:52:10.728Z,3.27
2019-01-16T01:54:49.573Z,3.70
2019-01-16T01:57:19.775Z,3.40
2019-01-16T01:59:58.827Z,3.07
2019-01-16T02:02:34.394Z,2.53
2019-01-16T02:08:01.919Z,3.17
2019-01-16T02:10:31.783Z,3.17
2019-01-16T02:13:10.653Z,3.60
2019-01-16T02:15:52.824Z,2.43
2019-01-16T02:18:37.929Z,3.73
2019-01-16T02:21:16.836Z,3.67
2019-01-16T02:24:02.061Z,4.07
2019-01-16T02:26:47.029Z,3.93
2019-01-16T02:29:19.579Z,2.33
2019-01-16T02:32:05.706Z,4.43
2019-01-16T02:34:35.502Z,4.33
2019-01-16T02:37:08.240Z,3.93
2019-01-16T02:39:38.016Z,3.13
2019-01-16T02:42:24.401Z,3.43
2019-01-16T02:44:56.979Z,4.87
2019-01-16T02:47:38.708Z,4.70
2019-01-16T02:50:21.042Z,3.70
2019-01-16T02:52:50.820Z,4.10
2019-01-16T02:55:23.292Z,5.20
2019-01-16T02:57:55.484Z,4.70
2019-01-16T03:00:34.217Z,3.67
2019-01-16T03:03:16.162Z,4.87
2019-01-16T03:05:48.985Z,4.47
2019-01-16T03:08:21.843Z,4.60
2019-01-16T03:10:57.736Z,4.23
2019-01-16T03:13:33.174Z,5.20
2019-01-16T03:16:11.994Z,4.20
2019-01-16T03:18:41.799Z,4.70
2019-01-16T03:21:28.382Z,5.40
2019-01-16T03:24:14.665Z,5.17
2019-01-16T03:27:00.911Z,4.93
2019-01-16T03:29:43.065Z,5.23
2019-01-16T03:32:25.174Z,4.97
2019-01-16T03:34:57.940Z,5.30
2019-01-16T03:37:30.669Z,5.97
2019-01-16T03:40:15.580Z,5.57
2019-01-16T03:42:48.132Z,5.13
2019-01-16T03:45:17.921Z,5.90
2019-01-16T03:47:53.736Z,5.40
2019-01-16T03:50:25.557Z,6.50
2019-01-16T03:52:58.293Z,6.73
2019-01-16T03:55:30.938Z,5.47
2019-01-16T03:58:15.907Z,5.77
2019-01-16T04:01:03.560Z,6.87
2019-01-16T04:03:39.076Z,7.80
2019-01-16T04:06:14.893Z,7.93
2019-01-16T04:08:47.434Z,6.90
2019-01-16T04:11:17.442Z,8.63
2019-01-16T04:13:59.168Z,7.80
2019-01-16T04:16:32.051Z,8.37
2019-01-16T04:19:06.170Z,8.40
2019-01-16T04:21:54.485Z,7.70
2019-01-16T04:24:27.269Z,9.13
2019-01-16T04:27:00.036Z,7.93
2019-01-16T04:29:32.870Z,9.37
2019-01-16T04:32:02.745Z,8.23
2019-01-16T04:34:48.904Z,10.10
2019-01-16T04:37:18.844Z,9.53
2019-01-16T04:39:51.020Z,8.17
2019-01-16T04:42:20.910Z,9.70
2019-01-16T04:44:50.728Z,9.60
2019-01-16T04:47:26.428Z,5.27
2019-01-16T04:50:08.190Z,7.57
2019-01-16T04:52:40.715Z,10.77
2019-01-16T04:55:27.064Z,10.60
2019-01-16T04:57:59.879Z,10.70
2019-01-16T05:00:29.638Z,10.70
2019-01-16T05:03:14.424Z,10.93
2019-01-16T05:05:53.052Z,11.07
2019-01-16T05:08:41.112Z,10.23
2019-01-16T05:11:13.706Z,9.90
2019-01-16T05:13:46.426Z,9.43
2019-01-16T05:16:31.077Z,10.03
2019-01-16T05:19:16.153Z,8.83
2019-01-16T05:21:49.117Z,9.27
2019-01-16T05:24:19.025Z,9.80
2019-01-16T05:26:58.121Z,9.10
2019-01-16T05:29:44.362Z,10.47
2019-01-16T05:32:14.133Z,9.67
2019-01-16T05:34:49.941Z,9.63
2019-01-16T05:37:38.146Z,10.33
2019-01-16T05:40:12.237Z,5.60
2019-01-16T05:42:47.931Z,8.07
2019-01-16T05:45:20.536Z,7.70
2019-01-16T05:47:59.369Z,7.90
2019-01-16T05:50:32.080Z,9.37
2019-01-16T05:53:18.429Z,7.43
2019-01-16T05:55:57.012Z,8.77
2019-01-16T05:58:27.433Z,7.97
2019-01-16T06:01:03.208Z,7.80
2019-01-16T06:03:35.812Z,7.40
2019-01-16T06:06:18.425Z,6.33
2019-01-16T06:08:56.892Z,7.70
2019-01-16T06:11:43.098Z,5.07
2019-01-16T06:14:24.804Z,6.80
2019-01-16T06:17:00.419Z,7.27
2019-01-16T06:19:53.890Z,8.13
2019-01-16T06:22:30.532Z,7.17
2019-01-16T06:25:17.162Z,7.67
2019-01-16T06:27:52.730Z,8.20
2019-01-16T06:30:25.178Z,7.50
2019-01-16T06:33:01.242Z,8.70
2019-01-16T06:35:46.421Z,8.83
2019-01-16T06:38:32.610Z,8.97
2019-01-16T06:41:02.432Z,9.73
2019-01-16T06:43:38.074Z,9.30
2019-01-16T06:46:07.816Z,8.90
2019-01-16T06:48:46.434Z,8.57
2019-01-16T06:51:19.202Z,10.50
2019-01-16T06:54:00.749Z,10.23
2019-01-16T06:56:30.514Z,9.80
2019-01-16T06:59:03.256Z,10.50
2019-01-16T07:01:33.094Z,10.10
2019-01-16T07:04:18.001Z,9.80
2019-01-16T07:06:53.683Z,8.67
2019-01-16T07:09:35.312Z,9.83
2019-01-16T07:12:20.451Z,10.50
2019-01-16T07:15:08.773Z,10.73
2019-01-16T07:17:55.153Z,10.10
2019-01-16T07:20:33.341Z,8.20
2019-01-16T07:23:03.100Z,11.13
2019-01-16T07:25:41.784Z,11.07
2019-01-16T07:28:23.069Z,9.80
2019-01-16T07:30:59.065Z,10.43
2019-01-16T07:33:38.070Z,9.83
2019-01-16T07:36:13.548Z,8.57
2019-01-16T07:38:59.737Z,9.37
2019-01-16T07:41:47.642Z,10.43
2019-01-16T07:44:23.597Z,10.87
2019-01-16T07:46:56.353Z,10.33
2019-01-16T07:49:41.484Z,10.63
2019-01-16T07:52:25.941Z,9.90
2019-01-16T07:55:14.513Z,10.87
2019-01-16T07:57:44.345Z,10.57
2019-01-16T08:00:15.052Z,9.27
2019-01-16T08:03:01.241Z,10.90
2019-01-16T08:05:47.386Z,9.67
2019-01-16T08:08:23.235Z,10.53
2019-01-16T08:11:01.745Z,9.07
2019-01-16T08:13:43.249Z,8.97
2019-01-16T08:16:28.292Z,9.87
2019-01-16T08:19:03.799Z,7.13
2019-01-16T08:21:33.577Z,8.80
2019-01-16T08:24:03.341Z,8.60
2019-01-16T08:26:36.004Z,9.63
2019-01-16T08:29:10.136Z,9.90
2019-01-16T08:31:46.081Z,10.83
2019-01-16T08:34:18.749Z,9.03
2019-01-16T08:37:03.765Z,8.97
2019-01-16T08:39:33.543Z,9.40
2019-01-16T08:42:15.361Z,8.30
2019-01-16T08:44:50.889Z,8.10
2019-01-16T08:47:23.931Z,7.37
2019-01-16T08:50:08.820Z,9.23
2019-01-16T08:52:41.262Z,8.50
2019-01-16T08:55:11.145Z,9.17
2019-01-16T08:57:43.672Z,9.17
2019-01-16T09:00:14.296Z,8.80
2019-01-16T09:03:02.254Z,8.13
2019-01-16T09:05:32.034Z,7.83
2019-01-16T09:08:01.813Z,7.90
2019-01-16T09:10:31.626Z,7.63
2019-01-16T09:13:10.105Z,8.67
2019-01-16T09:15:49.065Z,7.87
2019-01-16T09:18:32.754Z,7.15
2019-01-16T09:21:02.582Z,7.97
2019-01-16T09:23:32.405Z,8.37
2019-01-16T09:26:17.176Z,8.13
2019-01-16T09:28:46.966Z,8.07
2019-01-16T09:31:33.362Z,7.40
2019-01-16T09:34:05.881Z,7.87
2019-01-16T09:36:38.469Z,7.70
2019-01-16T09:39:25.942Z,7.47
2019-01-16T09:41:55.676Z,6.77
2019-01-16T09:44:28.577Z,7.70
2019-01-16T09:47:04.418Z,7.10
2019-01-16T09:49:36.944Z,6.90
2019-01-16T09:52:06.849Z,7.17
2019-01-16T09:54:45.319Z,7.93
2019-01-16T09:57:15.115Z,6.50
2019-01-16T10:00:03.298Z,6.63
2019-01-16T10:02:33.047Z,6.90
2019-01-16T10:05:02.834Z,6.23
2019-01-16T10:07:38.658Z,7.33
2019-01-16T10:10:10.083Z,5.40
2019-01-16T10:12:39.913Z,5.67
2019-01-16T10:15:13.430Z,6.23
2019-01-16T10:17:45.957Z,6.20
2019-01-16T10:20:22.008Z,5.10
2019-01-16T10:22:51.784Z,5.70
2019-01-16T10:25:21.541Z,5.67
2019-01-16T10:27:51.349Z,5.63
2019-01-16T10:30:31.683Z,6.03
2019-01-16T10:33:10.713Z,5.60
2019-01-16T10:35:49.517Z,5.10
2019-01-16T10:38:21.705Z,5.07
2019-01-16T10:41:00.553Z,5.63
2019-01-16T10:43:45.543Z,5.93
2019-01-16T10:46:30.554Z,4.87
2019-01-16T10:49:18.284Z,5.53
2019-01-16T10:51:57.109Z,5.30
2019-01-16T10:54:35.774Z,6.53
2019-01-16T10:57:05.647Z,5.17
2019-01-16T10:59:41.378Z,5.53
2019-01-16T11:02:17.349Z,5.13
2019-01-16T11:04:49.669Z,5.27
2019-01-16T11:07:19.432Z,5.00
2019-01-16T11:10:05.607Z,4.77
2019-01-16T11:12:35.449Z,4.60
2019-01-16T11:15:23.436Z,4.70
2019-01-16T11:18:08.476Z,5.07
2019-01-16T11:20:54.928Z,5.43
2019-01-16T11:23:27.710Z,5.20
2019-01-16T11:26:03.233Z,5.13
2019-01-16T11:28:49.799Z,4.87
2019-01-16T11:31:22.254Z,4.17
2019-01-16T11:34:08.534Z,4.87
2019-01-16T11:36:38.414Z,4.77
2019-01-16T11:39:12.186Z,3.83
2019-01-16T11:41:58.419Z,4.77
2019-01-16T11:44:30.945Z,4.43
2019-01-16T11:47:00.712Z,4.40
2019-01-16T11:49:48.515Z,5.13
2019-01-16T11:52:34.749Z,4.13
2019-01-16T11:55:20.810Z,4.20
2019-01-16T11:57:50.566Z,4.93
2019-01-16T12:00:35.470Z,4.50
2019-01-16T12:03:11.340Z,4.93
2019-01-16T12:05:44.075Z,4.47
2019-01-16T12:08:17.021Z,4.63
2019-01-16T12:11:03.635Z,4.40
2019-01-16T12:13:48.800Z,4.27
2019-01-16T12:16:18.620Z,4.13
2019-01-16T12:19:04.504Z,4.03
2019-01-16T12:21:50.534Z,4.17
2019-01-16T12:24:20.309Z,4.40
2019-01-16T12:26:53.231Z,4.13
2019-01-16T12:29:28.740Z,3.57
2019-01-16T12:31:58.516Z,3.67
2019-01-16T12:34:28.353Z,3.47
2019-01-16T12:37:04.366Z,3.50
2019-01-16T12:39:40.060Z,3.60
2019-01-16T12:42:09.851Z,3.63
2019-01-16T12:44:45.602Z,3.37
2019-01-16T12:47:15.357Z,3.53
2019-01-16T12:49:45.175Z,3.20
2019-01-16T12:52:31.473Z,3.57
2019-01-16T12:55:03.995Z,3.73
2019-01-16T12:57:33.783Z,3.63
2019-01-16T13:00:09.337Z,3.40
2019-01-16T13:02:42.071Z,3.03
2019-01-16T13:05:12.155Z,3.10
2019-01-16T13:07:44.760Z,3.23
2019-01-16T13:10:30.625Z,2.80
2019-01-16T13:13:15.517Z,3.03
2019-01-16T13:15:45.328Z,3.00
2019-01-16T13:18:15.106Z,3.10
2019-01-16T13:21:01.786Z,3.07
2019-01-16T13:23:31.561Z,3.10
2019-01-16T13:26:04.382Z,2.60
2019-01-16T13:28:49.163Z,3.00
2019-01-16T13:31:35.416Z,2.93
2019-01-16T13:34:14.060Z,3.03
2019-01-16T13:36:55.995Z,2.70
2019-01-16T13:39:37.863Z,2.47
2019-01-16T13:42:10.459Z,3.63
2019-01-16T13:44:46.142Z,2.80
2019-01-16T13:47:27.977Z,2.53
2019-01-16T13:49:58.365Z,2.80
2019-01-16T13:52:28.317Z,2.63
2019-01-16T13:54:58.241Z,2.27
2019-01-16T13:57:34.221Z,2.80
2019-01-16T14:00:04.265Z,3.23
2019-01-16T14:02:50.824Z,2.00
2019-01-16T14:05:23.554Z,2.50
2019-01-16T14:07:59.545Z,2.37
2019-01-16T14:10:29.375Z,2.70
2019-01-16T14:13:15.317Z,2.87
2019-01-16T14:15:54.274Z,4.37
2019-01-16T14:18:24.449Z,2.50
2019-01-16T14:21:03.054Z,2.70
2019-01-16T14:23:48.233Z,2.00
2019-01-16T14:26:18.051Z,2.37
2019-01-16T14:28:56.580Z,2.87
2019-01-16T14:31:26.430Z,2.70
2019-01-16T14:34:12.373Z,2.80
2019-01-16T14:36:42.156Z,2.80
2019-01-16T14:39:17.752Z,2.50
2019-01-16T14:42:04.011Z,2.80
2019-01-16T14:44:36.737Z,2.50
2019-01-16T14:47:15.969Z,2.33
2019-01-16T14:49:51.668Z,2.30
2019-01-16T14:52:24.141Z,2.70
2019-01-16T14:54:54.003Z,2.57
2019-01-16T14:57:23.830Z,2.33
2019-01-16T14:59:59.866Z,2.50
2019-01-16T15:02:29.808Z,2.53
2019-01-16T15:04:59.641Z,2.90
2019-01-16T15:07:45.946Z,2.83
2019-01-16T15:10:15.707Z,2.47
2019-01-16T15:12:54.599Z,2.73
2019-01-16T15:15:32.565Z,3.10
2019-01-16T15:18:14.520Z,3.00
2019-01-16T15:20:53.302Z,2.73
2019-01-16T15:23:23.120Z,2.60
2019-01-16T15:25:52.941Z,2.40
2019-01-16T15:28:28.697Z,2.30
2019-01-16T15:31:07.605Z,2.67
2019-01-16T15:33:46.073Z,2.47
2019-01-16T15:36:21.825Z,2.57
2019-01-16T15:38:57.713Z,2.03
2019-01-16T15:41:33.437Z,3.03
2019-01-16T15:44:03.222Z,3.30
2019-01-16T15:46:33.335Z,2.43
2019-01-16T15:49:08.745Z,2.37
2019-01-16T15:51:38.490Z,2.30
2019-01-16T15:54:14.326Z,2.40
2019-01-16T15:56:49.849Z,2.23
2019-01-16T15:59:36.451Z,3.03
2019-01-16T16:02:06.385Z,2.93
2019-01-16T16:04:39.074Z,2.50
2019-01-16T16:07:25.433Z,2.90
2019-01-16T16:10:07.238Z,3.47
2019-01-16T16:12:48.832Z,3.07
2019-01-16T16:15:30.788Z,3.00
2019-01-16T16:18:03.303Z,2.73
2019-01-16T16:20:35.835Z,2.77
2019-01-16T16:23:11.022Z,1.73
2019-01-16T16:25:43.825Z,2.30
2019-01-16T16:28:22.519Z,2.40
2019-01-16T16:30:58.165Z,2.83
2019-01-16T16:33:34.622Z,2.47
2019-01-16T16:36:04.372Z,3.10
2019-01-16T16:38:43.090Z,2.77
2019-01-16T16:41:15.372Z,3.00
2019-01-16T16:43:48.029Z,2.90
2019-01-16T16:46:23.852Z,3.30
2019-01-16T16:49:10.371Z,2.27
2019-01-16T16:51:52.097Z,2.77
2019-01-16T16:54:21.911Z,3.20
2019-01-16T16:56:57.688Z,2.03
2019-01-16T16:59:30.575Z,3.10
2019-01-16T17:02:06.556Z,3.17
2019-01-16T17:04:42.516Z,2.80
2019-01-16T17:07:24.381Z,3.00
2019-01-16T17:09:54.130Z,2.80
2019-01-16T17:12:23.925Z,2.80
2019-01-16T17:14:56.693Z,3.40
2019-01-16T17:17:43.321Z,3.40
2019-01-16T17:20:22.191Z,3.30
2019-01-16T17:22:51.976Z,3.40
2019-01-16T17:25:30.709Z,3.37
2019-01-16T17:28:00.449Z,2.23
2019-01-16T17:30:47.005Z,3.93
2019-01-16T17:33:16.781Z,3.77
2019-01-16T17:35:46.528Z,3.50
2019-01-16T17:38:19.374Z,2.77
2019-01-16T17:40:57.896Z,3.63
2019-01-16T17:43:36.898Z,2.90
2019-01-16T17:46:23.082Z,4.10
2019-01-16T17:48:53.477Z,3.60
2019-01-16T17:51:32.005Z,3.27
2019-01-16T17:54:17.873Z,2.77
2019-01-16T17:56:47.801Z,4.10
2019-01-16T17:59:17.634Z,3.17
2019-01-16T18:01:47.507Z,3.43
2019-01-16T18:04:32.328Z,4.00
2019-01-16T18:07:04.908Z,3.70
2019-01-16T18:09:37.379Z,3.17
2019-01-16T18:12:15.955Z,3.70
2019-01-16T18:14:51.806Z,4.17
2019-01-16T18:17:33.524Z,2.80
2019-01-16T18:20:08.808Z,3.90
2019-01-16T18:22:47.282Z,3.67
2019-01-16T18:25:23.053Z,3.60
2019-01-16T18:27:55.465Z,2.63
2019-01-16T18:30:41.755Z,3.70
2019-01-16T18:33:14.310Z,3.63
2019-01-16T18:35:46.776Z,2.37
2019-01-16T18:38:22.545Z,4.30
2019-01-16T18:41:01.130Z,4.60
2019-01-16T18:43:34.208Z,2.87
2019-01-16T18:46:06.988Z,3.40
2019-01-16T18:48:55.042Z,4.07
2019-01-16T18:51:40.901Z,4.20
2019-01-16T18:54:13.144Z,9.70
2019-01-16T18:57:01.247Z,4.97
2019-01-16T18:59:36.736Z,9.07
2019-01-16T19:02:06.777Z,4.30
2019-01-16T19:04:36.609Z,3.37
2019-01-16T19:07:09.225Z,4.20
2019-01-16T19:09:57.307Z,4.40
2019-01-16T19:12:27.128Z,3.53
2019-01-16T19:14:59.577Z,4.10
2019-01-16T19:17:45.933Z,4.87
2019-01-16T19:20:16.094Z,5.07
2019-01-16T19:22:58.184Z,10.10
2019-01-16T19:25:28.092Z,4.57
2019-01-16T19:27:57.912Z,3.97
2019-01-16T19:30:27.664Z,4.20
2019-01-16T19:33:15.444Z,4.60
2019-01-16T19:35:45.193Z,4.17
2019-01-16T19:38:24.174Z,4.70
2019-01-16T19:40:54.033Z,4.20
2019-01-16T19:43:40.276Z,4.17
2019-01-16T19:46:10.220Z,4.97
2019-01-16T19:48:56.686Z,4.30
2019-01-16T19:51:32.301Z,4.27
2019-01-16T19:54:18.717Z,5.80
2019-01-16T19:56:55.138Z,4.23
2019-01-16T19:59:24.952Z,3.57
2019-01-16T20:02:12.860Z,4.57
2019-01-16T20:04:45.345Z,4.77
2019-01-16T20:07:15.104Z,2.77
2019-01-16T20:10:01.258Z,4.60
2019-01-16T20:12:39.890Z,4.73
2019-01-16T20:15:13.643Z,3.60
2019-01-16T20:17:43.468Z,4.73
2019-01-16T20:20:19.595Z,3.77
2019-01-16T20:22:52.445Z,4.33
2019-01-16T20:25:28.080Z,4.47
2019-01-16T20:28:00.554Z,4.50
2019-01-16T20:30:36.208Z,4.93
2019-01-16T20:33:19.192Z,4.50
2019-01-16T20:35:57.963Z,4.67
2019-01-16T20:38:33.849Z,4.03
2019-01-16T20:41:09.906Z,4.63
2019-01-16T20:43:56.281Z,4.40
2019-01-16T20:46:37.754Z,4.63
2019-01-16T20:49:13.614Z,5.27
2019-01-16T20:51:43.405Z,5.17
2019-01-16T20:54:24.993Z,4.30
2019-01-16T20:56:54.829Z,4.40
2019-01-16T20:59:36.472Z,4.87
2019-01-16T21:02:21.732Z,3.70
2019-01-16T21:04:51.521Z,4.17
2019-01-16T21:07:38.038Z,3.40
2019-01-16T21:10:09.366Z,4.17
2019-01-16T21:12:39.122Z,4.30
2019-01-16T21:15:19.867Z,5.30
2019-01-16T21:17:52.381Z,4.53
2019-01-16T21:20:33.858Z,6.03
2019-01-16T21:23:03.682Z,5.17
2019-01-16T21:25:51.806Z,5.33
2019-01-16T21:28:21.589Z,6.13
2019-01-16T21:30:51.353Z,5.83
2019-01-16T21:33:33.554Z,6.20
2019-01-16T21:36:08.813Z,6.27
2019-01-16T21:38:42.034Z,5.37
2019-01-16T21:41:14.990Z,6.27
2019-01-16T21:43:44.770Z,6.23
2019-01-16T21:46:31.376Z,5.80
2019-01-16T21:49:17.928Z,4.33
2019-01-16T21:51:56.712Z,6.00
2019-01-16T21:54:42.768Z,6.63
2019-01-16T21:57:29.065Z,6.10
2019-01-16T22:00:15.570Z,6.73
2019-01-16T22:03:01.927Z,5.70
2019-01-16T22:05:31.677Z,5.80
2019-01-16T22:08:01.484Z,6.23
2019-01-16T22:10:31.385Z,5.57
2019-01-16T22:13:13.345Z,5.37
2019-01-16T22:15:45.685Z,5.30
2019-01-16T22:18:21.449Z,6.07
2019-01-16T22:21:00.433Z,6.23
2019-01-16T22:23:36.782Z,6.30
2019-01-16T22:26:06.682Z,6.23
2019-01-16T22:28:53.077Z,6.20
2019-01-16T22:31:22.881Z,5.20
2019-01-16T22:34:01.797Z,4.60
2019-01-16T22:36:37.823Z,5.90
2019-01-16T22:39:21.389Z,5.83
2019-01-16T22:41:51.169Z,6.17
2019-01-16T22:44:23.831Z,6.03
2019-01-16T22:47:02.532Z,5.83
2019-01-16T22:49:32.485Z,5.97
2019-01-16T22:52:12.114Z,5.33
2019-01-16T22:54:41.936Z,6.10
2019-01-16T22:57:29.839Z,5.93
2019-01-16T22:59:59.744Z,5.67
2019-01-16T23:02:29.603Z,5.50
2019-01-16T23:08:01.108Z,5.73
2019-01-16T23:10:34.057Z,5.50
2019-01-16T23:13:09.606Z,5.50
2019-01-16T23:15:39.374Z,5.20
2019-01-16T23:18:24.270Z,6.43
2019-01-16T23:21:06.449Z,5.47
2019-01-16T23:23:39.278Z,5.90
2019-01-16T23:26:11.844Z,5.53
2019-01-16T23:28:57.886Z,5.97
2019-01-16T23:31:36.758Z,5.60
2019-01-16T23:34:06.555Z,6.07
2019-01-16T23:36:39.356Z,6.40
2019-01-16T23:39:25.600Z,5.93
2019-01-16T23:42:01.175Z,6.03
2019-01-16T23:44:39.938Z,5.50
2019-01-16T23:47:09.686Z,5.60
2019-01-16T23:49:59.380Z,5.17
2019-01-16T23:52:29.187Z,5.40
2019-01-16T23:55:08.069Z,5.40
2019-01-16T23:57:40.675Z,5.93
